| time (UTC) | temp F | wind direction | speed MPH | gust MPH | rain 1hr in | rain 24hr in | rain mn in | humidity % | barometer mb |
| 20260509101551 | 47 | 323 | 0.0 | 0.0 | 0.00 | 0.00 | 0.00 | 87 | 1025.8 |
| 20260509100035 | 48 | 323 | 0.0 | 1.0 | 0.00 | 0.00 | 0.00 | 86 | 1025.7 |
| 20260509094545 | 48 | 7 | 0.0 | 0.0 | 0.00 | 0.00 | 0.00 | 86 | 1025.5 |
| 20260509093039 | 49 | 7 | 0.0 | 1.0 | 0.00 | 0.00 | 0.00 | 84 | 1025.5 |
| 20260509091632 | 50 | 336 | 0.0 | 1.0 | 0.00 | 0.00 | 0.00 | 82 | 1025.5 |
| 20260509090051 | 52 | 63 | 0.0 | 1.0 | 0.00 | 0.00 | 0.00 | 80 | 1025.3 |
| 20260509084515 | 53 | 97 | 1.0 | 3.0 | 0.00 | 0.00 | 0.00 | 79 | 1025.1 |
| 20260509083008 | 52 | 54 | 2.0 | 3.0 | 0.00 | 0.00 | 0.00 | 80 | 1024.9 |
| 20260509081533 | 52 | 34 | 0.0 | 0.0 | 0.00 | 0.00 | 0.00 | 79 | 1024.6 |
| 20260509080025 | 54 | 34 | 0.0 | 2.0 | 0.00 | 0.00 | 0.00 | 76 | 1024.3 |
| 20260509074555 | 54 | 54 | 2.0 | 3.0 | 0.00 | 0.00 | 0.00 | 76 | 1024.1 |
| 20260509073111 | 55 | 62 | 0.0 | 1.0 | 0.00 | 0.00 | 0.00 | 72 | 1023.8 |
| 20260509071558 | 57 | 50 | 0.0 | 1.0 | 0.00 | 0.00 | 0.00 | 70 | 1023.7 |
| 20260509071503 | 57 | 50 | 0.0 | 1.0 | 0.00 | 0.00 | 0.00 | 69 | 1023.6 |
| 20260509070058 | 59 | 107 | 0.0 | 3.0 | 0.00 | 0.00 | 0.00 | 66 | 1023.5 |
| 20260509070003 | 59 | 79 | 0.0 | 3.0 | 0.00 | 0.00 | 0.00 | 65 | 1023.5 |
| 20260509064518 | 61 | 268 | 0.0 | 0.0 | 0.00 | 0.00 | 0.00 | 53 | 1023.2 |
| 20260509063007 | 63 | 275 | 0.0 | 4.0 | 0.00 | 0.00 | 0.00 | 51 | 1023.0 |
| 20260509061502 | 64 | 284 | 1.0 | 3.0 | 0.00 | 0.00 | 0.00 | 51 | 1023.0 |
| 20260509060059 | 63 | 276 | 1.0 | 5.0 | 0.00 | 0.00 | 0.00 | 50 | 1022.9 |
| 20260509054504 | 64 | 287 | 1.0 | 5.0 | 0.00 | 0.00 | 0.00 | 51 | 1022.7 |
| 20260509053046 | 64 | 275 | 1.0 | 3.0 | 0.00 | 0.00 | 0.00 | 51 | 1022.7 |
| 20260509051505 | 64 | 272 | 2.0 | 4.0 | 0.00 | 0.00 | 0.00 | 52 | 1022.7 |
| 20260509050055 | 63 | 100 | 1.0 | 4.0 | 0.00 | 0.00 | 0.00 | 54 | 1022.8 |
| 20260509044508 | 64 | 142 | 2.0 | 5.0 | 0.00 | 0.00 | 0.00 | 53 | 1022.7 |
| 20260509043054 | 63 | 31 | 0.0 | 5.0 | 0.00 | 0.00 | 0.00 | 54 | 1022.7 |
| 20260509043001 | 63 | 47 | 0.0 | 5.0 | 0.00 | 0.00 | 0.00 | 54 | 1022.7 |
| 20260509041518 | 63 | 244 | 0.0 | 6.0 | 0.00 | 0.00 | 0.00 | 54 | 1022.8 |
| 20260509040010 | 63 | 189 | 1.0 | 4.0 | 0.00 | 0.00 | 0.00 | 54 | 1022.7 |
| 20260509034529 | 64 | 334 | 0.0 | 3.0 | 0.00 | 0.00 | 0.00 | 53 | 1022.8 |
| 20260509033054 | 63 | 2 | 0.0 | 3.0 | 0.00 | 0.00 | 0.00 | 54 | 1023.0 |
| 20260509031601 | 62 | 341 | 1.0 | 5.0 | 0.00 | 0.00 | 0.00 | 58 | 1023.0 |
| 20260509030048 | 61 | 245 | 3.0 | 5.0 | 0.00 | 0.00 | 0.00 | 58 | 1023.2 |
| 20260509024604 | 61 | 204 | 1.0 | 4.0 | 0.00 | 0.00 | 0.00 | 59 | 1023.5 |
| 20260509023046 | 60 | 303 | 1.0 | 5.0 | 0.00 | 0.00 | 0.00 | 59 | 1023.7 |
| 20260509021506 | 60 | 232 | 3.0 | 5.0 | 0.00 | 0.00 | 0.00 | 60 | 1024.0 |
| 20260509020054 | 59 | 294 | 3.0 | 5.0 | 0.00 | 0.00 | 0.00 | 61 | 1024.3 |
| 20260509014512 | 59 | 273 | 1.0 | 6.0 | 0.00 | 0.00 | 0.00 | 60 | 1024.5 |
| 20260509013049 | 58 | 301 | 1.0 | 3.0 | 0.00 | 0.00 | 0.00 | 63 | 1024.8 |
| 20260509011604 | 57 | 100 | 2.0 | 5.0 | 0.00 | 0.00 | 0.00 | 63 | 1024.9 |
| 20260509010039 | 57 | 324 | 1.0 | 4.0 | 0.00 | 0.00 | 0.00 | 66 | 1025.1 |
| 20260509004558 | 56 | 178 | 0.0 | 3.0 | 0.00 | 0.00 | 0.00 | 67 | 1025.2 |
| 20260509003022 | 55 | 168 | 0.0 | 4.0 | 0.00 | 0.00 | 0.00 | 70 | 1025.3 |
| 20260509001526 | 53 | 284 | 1.0 | 3.0 | 0.00 | 0.00 | 0.00 | 74 | 1025.4 |
| 20260509000049 | 52 | 301 | 1.0 | 2.0 | 0.00 | 0.00 | 0.00 | 75 | 1025.5 |
| 20260508234556 | 51 | 337 | 0.0 | 3.0 | 0.00 | 0.00 | 0.00 | 80 | 1025.6 |
| 20260508233040 | 50 | 296 | 0.0 | 2.0 | 0.00 | 0.00 | 0.00 | 83 | 1025.6 |
| 20260508231551 | 48 | 282 | 1.0 | 2.0 | 0.00 | 0.00 | 0.00 | 85 | 1025.7 |
| 20260508230037 | 48 | 308 | 0.0 | 2.0 | 0.00 | 0.00 | 0.00 | 88 | 1025.7 |
| 20260508224540 | 47 | 277 | 0.0 | 1.0 | 0.00 | 0.00 | 0.00 | 92 | 1025.7 |
| 20260508223034 | 44 | 319 | 0.0 | 1.0 | 0.00 | 0.00 | 0.00 | 96 | 1025.7 |
| 20260508221517 | 41 | 291 | 0.0 | 1.0 | 0.00 | 0.00 | 0.00 | 95 | 1025.6 |
| 20260508220005 | 40 | 300 | 1.0 | 2.0 | 0.00 | 0.00 | 0.00 | 95 | 1025.4 |
| 20260508214513 | 39 | 278 | 1.0 | 2.0 | 0.00 | 0.00 | 0.00 | 95 | 1025.2 |
| 20260508213015 | 39 | 264 | 0.0 | 2.0 | 0.00 | 0.00 | 0.00 | 95 | 1025.1 |
| 20260508211525 | 38 | 21 | 0.0 | 0.0 | 0.00 | 0.00 | 0.00 | 96 | 1025.0 |
| 20260508210012 | 38 | 21 | 0.0 | 0.0 | 0.00 | 0.00 | 0.00 | 95 | 1024.8 |
| 20260508204530 | 39 | 21 | 0.0 | 0.0 | 0.00 | 0.00 | 0.00 | 96 | 1024.5 |
| 20260508203002 | 40 | 21 | 0.0 | 0.0 | 0.00 | 0.00 | 0.00 | 95 | 1024.3 |
| 20260508201520 | 39 | 16 | 0.0 | 1.0 | 0.00 | 0.00 | 0.00 | 96 | 1024.2 |
| 20260508200002 | 40 | 33 | 0.0 | 0.0 | 0.00 | 0.00 | 0.00 | 95 | 1024.0 |
| 20260508194513 | 41 | 33 | 0.0 | 1.0 | 0.00 | 0.00 | 0.00 | 96 | 1023.9 |
| 20260508193106 | 41 | 35 | 0.0 | 1.0 | 0.00 | 0.00 | 0.00 | 96 | 1023.7 |
| 20260508191514 | 40 | 359 | 0.0 | 0.0 | 0.00 | 0.00 | 0.00 | 95 | 1023.6 |
| 20260508190056 | 40 | 359 | 0.0 | 0.0 | 0.00 | 0.00 | 0.00 | 95 | 1023.5 |
| 20260508190004 | 40 | 359 | 0.0 | 0.0 | 0.00 | 0.00 | 0.00 | 95 | 1023.5 |
| 20260508184529 | 41 | 42 | 0.0 | 1.0 | 0.00 | 0.00 | 0.00 | 96 | 1023.4 |
| 20260508183017 | 41 | 35 | 0.0 | 1.0 | 0.00 | 0.00 | 0.00 | 96 | 1023.3 |
| 20260508181537 | 40 | 44 | 0.0 | 0.0 | 0.00 | 0.00 | 0.00 | 95 | 1023.2 |
| 20260508180036 | 40 | 44 | 0.0 | 1.0 | 0.00 | 0.00 | 0.00 | 96 | 1023.3 |
| 20260508174542 | 40 | 44 | 0.0 | 1.0 | 0.00 | 0.00 | 0.00 | 95 | 1023.2 |
| 20260508173032 | 41 | 44 | 0.0 | 1.0 | 0.00 | 0.00 | 0.00 | 95 | 1023.2 |
| 20260508171557 | 41 | 51 | 0.0 | 1.0 | 0.00 | 0.00 | 0.00 | 96 | 1023.2 |
| 20260508170050 | 40 | 51 | 0.0 | 1.0 | 0.00 | 0.00 | 0.00 | 95 | 1023.1 |
| 20260508164513 | 40 | 35 | 0.0 | 0.0 | 0.00 | 0.00 | 0.00 | 94 | 1023.2 |
| 20260508163004 | 41 | 35 | 0.0 | 1.0 | 0.00 | 0.00 | 0.00 | 95 | 1023.3 |
| 20260508161520 | 40 | 35 | 0.0 | 1.0 | 0.00 | 0.00 | 0.00 | 94 | 1023.1 |
| 20260508160023 | 40 | 35 | 0.0 | 0.0 | 0.00 | 0.00 | 0.00 | 94 | 1023.2 |
| 20260508154524 | 39 | 35 | 0.0 | 0.0 | 0.00 | 0.00 | 0.00 | 93 | 1023.2 |
| 20260508153016 | 39 | 35 | 0.0 | 0.0 | 0.00 | 0.00 | 0.00 | 91 | 1023.1 |
| 20260508151533 | 41 | 35 | 0.0 | 0.0 | 0.00 | 0.00 | 0.00 | 91 | 1023.3 |
| 20260508150020 | 42 | 33 | 0.0 | 1.0 | 0.00 | 0.00 | 0.00 | 92 | 1023.3 |
| 20260508144528 | 42 | 54 | 0.0 | 1.0 | 0.00 | 0.00 | 0.00 | 91 | 1023.2 |
| 20260508143011 | 42 | 33 | 0.0 | 1.0 | 0.00 | 0.00 | 0.00 | 92 | 1023.2 |
| 20260508141537 | 41 | 36 | 0.0 | 1.0 | 0.00 | 0.00 | 0.00 | 91 | 1023.1 |
| 20260508140110 | 41 | 16 | 0.0 | 0.0 | 0.00 | 0.00 | 0.00 | 92 | 1023.1 |
| 20260508134527 | 41 | 318 | 0.0 | 1.0 | 0.00 | 0.00 | 0.00 | 91 | 1023.0 |
| 20260508133100 | 41 | 284 | 0.0 | 0.0 | 0.00 | 0.00 | 0.00 | 90 | 1022.9 |
| 20260508131515 | 42 | 284 | 0.0 | 1.0 | 0.00 | 0.00 | 0.00 | 88 | 1023.1 |
| 20260508130003 | 43 | 284 | 0.0 | 1.0 | 0.00 | 0.00 | 0.00 | 86 | 1023.1 |
| 20260508124527 | 44 | 48 | 2.0 | 3.0 | 0.00 | 0.00 | 0.00 | 87 | 1023.2 |
| 20260508123006 | 45 | 33 | 0.0 | 1.0 | 0.00 | 0.00 | 0.00 | 85 | 1023.3 |
| 20260508121548 | 45 | 334 | 0.0 | 1.0 | 0.00 | 0.00 | 0.00 | 85 | 1023.3 |
| 20260508120014 | 46 | 210 | 0.0 | 2.0 | 0.00 | 0.00 | 0.00 | 83 | 1023.3 |
| 20260508114530 | 45 | 291 | 0.0 | 1.0 | 0.00 | 0.00 | 0.00 | 83 | 1023.0 |
| 20260508113025 | 46 | 289 | 0.0 | 1.0 | 0.00 | 0.00 | 0.00 | 82 | 1023.0 |
| 20260508111551 | 47 | 249 | 0.0 | 5.0 | 0.00 | 0.00 | 0.00 | 82 | 1023.0 |
| 20260508110049 | 47 | 216 | 0.0 | 3.0 | 0.00 | 0.00 | 0.00 | 80 | 1023.0 |
| 20260508104555 | 48 | 225 | 1.0 | 8.0 | 0.00 | 0.00 | 0.00 | 80 | 1022.6 |
| 20260508103053 | 47 | 239 | 1.0 | 5.0 | 0.00 | 0.00 | 0.00 | 81 | 1022.6 |